sensor_id;sensor_type;location;lat;lon;timestamp;temperature;humidity
17284;DHT22;8760;52.248;20.952;2024-02-23T00:00:12;8.60;99.90
17284;DHT22;8760;52.248;20.952;2024-02-23T00:02:39;8.60;99.90
17284;DHT22;8760;52.248;20.952;2024-02-23T00:05:07;8.60;99.90
17284;DHT22;8760;52.248;20.952;2024-02-23T00:07:34;8.60;99.90
17284;DHT22;8760;52.248;20.952;2024-02-23T00:10:02;8.60;99.90
17284;DHT22;8760;52.248;20.952;2024-02-23T00:12:29;8.60;99.90
17284;DHT22;8760;52.248;20.952;2024-02-23T00:14:56;8.60;99.90
17284;DHT22;8760;52.248;20.952;2024-02-23T00:17:22;8.70;99.90
17284;DHT22;8760;52.248;20.952;2024-02-23T00:19:49;8.60;99.90
17284;DHT22;8760;52.248;20.952;2024-02-23T00:22:18;8.60;99.90
17284;DHT22;8760;52.248;20.952;2024-02-23T00:24:45;8.70;99.90
17284;DHT22;8760;52.248;20.952;2024-02-23T00:27:13;8.60;99.90
17284;DHT22;8760;52.248;20.952;2024-02-23T00:29:40;8.60;99.90
17284;DHT22;8760;52.248;20.952;2024-02-23T00:32:07;8.60;99.90
17284;DHT22;8760;52.248;20.952;2024-02-23T00:34:34;8.70;99.90
17284;DHT22;8760;52.248;20.952;2024-02-23T00:37:01;8.60;99.90
17284;DHT22;8760;52.248;20.952;2024-02-23T00:39:27;8.60;99.90
17284;DHT22;8760;52.248;20.952;2024-02-23T00:41:54;8.60;99.90
17284;DHT22;8760;52.248;20.952;2024-02-23T00:44:22;8.60;99.90
17284;DHT22;8760;52.248;20.952;2024-02-23T00:46:49;8.60;99.90
17284;DHT22;8760;52.248;20.952;2024-02-23T00:49:16;8.60;99.90
17284;DHT22;8760;52.248;20.952;2024-02-23T00:51:43;8.60;99.90
17284;DHT22;8760;52.248;20.952;2024-02-23T00:54:10;8.60;99.90
17284;DHT22;8760;52.248;20.952;2024-02-23T00:56:37;8.60;99.90
17284;DHT22;8760;52.248;20.952;2024-02-23T00:59:04;8.60;99.90
17284;DHT22;8760;52.248;20.952;2024-02-23T01:01:32;8.60;99.90
17284;DHT22;8760;52.248;20.952;2024-02-23T01:03:59;8.60;99.90
17284;DHT22;8760;52.248;20.952;2024-02-23T01:06:26;8.60;99.90
17284;DHT22;8760;52.248;20.952;2024-02-23T01:08:54;8.60;99.90
17284;DHT22;8760;52.248;20.952;2024-02-23T01:11:20;8.70;99.90
17284;DHT22;8760;52.248;20.952;2024-02-23T01:13:47;8.70;99.90
17284;DHT22;8760;52.248;20.952;2024-02-23T01:16:15;8.70;99.90
17284;DHT22;8760;52.248;20.952;2024-02-23T01:18:43;8.70;99.90
17284;DHT22;8760;52.248;20.952;2024-02-23T01:21:10;8.70;99.90
17284;DHT22;8760;52.248;20.952;2024-02-23T01:23:37;8.70;99.90
17284;DHT22;8760;52.248;20.952;2024-02-23T01:26:04;8.70;99.90
17284;DHT22;8760;52.248;20.952;2024-02-23T01:28:31;8.60;99.90
17284;DHT22;8760;52.248;20.952;2024-02-23T01:30:58;8.60;99.90
17284;DHT22;8760;52.248;20.952;2024-02-23T01:33:25;8.60;99.90
17284;DHT22;8760;52.248;20.952;2024-02-23T01:35:53;8.60;99.90
17284;DHT22;8760;52.248;20.952;2024-02-23T01:38:22;8.60;99.90
17284;DHT22;8760;52.248;20.952;2024-02-23T01:40:50;8.60;99.90
17284;DHT22;8760;52.248;20.952;2024-02-23T01:43:17;8.70;99.90
17284;DHT22;8760;52.248;20.952;2024-02-23T01:45:44;8.70;99.90
17284;DHT22;8760;52.248;20.952;2024-02-23T01:48:11;8.70;99.90
17284;DHT22;8760;52.248;20.952;2024-02-23T01:50:38;8.70;99.90
17284;DHT22;8760;52.248;20.952;2024-02-23T01:53:07;8.70;99.90
17284;DHT22;8760;52.248;20.952;2024-02-23T01:55:37;8.60;99.90
17284;DHT22;8760;52.248;20.952;2024-02-23T01:58:04;8.70;99.90
17284;DHT22;8760;52.248;20.952;2024-02-23T02:00:32;8.70;99.90
17284;DHT22;8760;52.248;20.952;2024-02-23T02:02:58;8.70;99.90
17284;DHT22;8760;52.248;20.952;2024-02-23T02:05:25;8.70;99.90
17284;DHT22;8760;52.248;20.952;2024-02-23T02:07:55;8.70;99.90
17284;DHT22;8760;52.248;20.952;2024-02-23T02:10:25;8.70;99.90
17284;DHT22;8760;52.248;20.952;2024-02-23T02:12:52;8.80;99.90
17284;DHT22;8760;52.248;20.952;2024-02-23T02:15:20;8.70;99.90
17284;DHT22;8760;52.248;20.952;2024-02-23T02:17:47;8.70;99.90
17284;DHT22;8760;52.248;20.952;2024-02-23T02:20:14;8.70;99.90
17284;DHT22;8760;52.248;20.952;2024-02-23T02:22:41;8.70;99.90
17284;DHT22;8760;52.248;20.952;2024-02-23T02:25:08;8.70;99.90
17284;DHT22;8760;52.248;20.952;2024-02-23T02:27:36;8.70;99.90
17284;DHT22;8760;52.248;20.952;2024-02-23T02:30:04;8.70;99.90
17284;DHT22;8760;52.248;20.952;2024-02-23T02:32:31;8.70;99.90
17284;DHT22;8760;52.248;20.952;2024-02-23T02:34:58;8.70;99.90
17284;DHT22;8760;52.248;20.952;2024-02-23T02:37:25;8.70;99.90
17284;DHT22;8760;52.248;20.952;2024-02-23T02:39:52;8.70;99.90
17284;DHT22;8760;52.248;20.952;2024-02-23T02:42:19;8.70;99.90
17284;DHT22;8760;52.248;20.952;2024-02-23T02:44:47;8.70;99.90
17284;DHT22;8760;52.248;20.952;2024-02-23T02:47:14;8.70;99.90
17284;DHT22;8760;52.248;20.952;2024-02-23T02:49:41;8.70;99.90
17284;DHT22;8760;52.248;20.952;2024-02-23T02:52:08;8.70;99.90
17284;DHT22;8760;52.248;20.952;2024-02-23T02:54:35;8.70;99.90
17284;DHT22;8760;52.248;20.952;2024-02-23T02:57:02;8.70;99.90
17284;DHT22;8760;52.248;20.952;2024-02-23T02:59:29;8.70;99.90
17284;DHT22;8760;52.248;20.952;2024-02-23T03:01:58;8.70;99.90
17284;DHT22;8760;52.248;20.952;2024-02-23T03:04:25;8.70;99.90
17284;DHT22;8760;52.248;20.952;2024-02-23T03:06:52;8.80;99.90
17284;DHT22;8760;52.248;20.952;2024-02-23T03:09:19;8.80;99.90
17284;DHT22;8760;52.248;20.952;2024-02-23T03:11:46;8.80;99.90
17284;DHT22;8760;52.248;20.952;2024-02-23T03:14:13;8.80;99.90
17284;DHT22;8760;52.248;20.952;2024-02-23T03:16:40;8.80;99.90
17284;DHT22;8760;52.248;20.952;2024-02-23T03:19:08;8.70;99.90
17284;DHT22;8760;52.248;20.952;2024-02-23T03:21:35;8.60;99.90
17284;DHT22;8760;52.248;20.952;2024-02-23T03:24:02;8.60;99.90
17284;DHT22;8760;52.248;20.952;2024-02-23T03:26:29;8.50;99.90
17284;DHT22;8760;52.248;20.952;2024-02-23T03:28:56;8.40;99.90
17284;DHT22;8760;52.248;20.952;2024-02-23T03:31:23;8.30;99.90
17284;DHT22;8760;52.248;20.952;2024-02-23T03:33:50;8.20;99.90
17284;DHT22;8760;52.248;20.952;2024-02-23T03:36:18;8.10;99.90
17284;DHT22;8760;52.248;20.952;2024-02-23T03:38:45;8.00;99.90
17284;DHT22;8760;52.248;20.952;2024-02-23T03:41:13;7.90;99.90
17284;DHT22;8760;52.248;20.952;2024-02-23T03:43:40;7.90;99.90
17284;DHT22;8760;52.248;20.952;2024-02-23T03:46:07;7.90;99.90
17284;DHT22;8760;52.248;20.952;2024-02-23T03:48:34;7.90;99.90
17284;DHT22;8760;52.248;20.952;2024-02-23T03:51:03;7.90;99.90
17284;DHT22;8760;52.248;20.952;2024-02-23T03:53:31;7.90;99.90
17284;DHT22;8760;52.248;20.952;2024-02-23T03:55:58;7.90;99.90
17284;DHT22;8760;52.248;20.952;2024-02-23T03:58:25;7.90;99.90
17284;DHT22;8760;52.248;20.952;2024-02-23T04:00:52;7.90;99.90
17284;DHT22;8760;52.248;20.952;2024-02-23T04:03:19;7.90;99.90
17284;DHT22;8760;52.248;20.952;2024-02-23T04:05:46;7.80;99.90
17284;DHT22;8760;52.248;20.952;2024-02-23T04:08:13;7.80;99.90
17284;DHT22;8760;52.248;20.952;2024-02-23T04:10:41;7.80;99.90
17284;DHT22;8760;52.248;20.952;2024-02-23T04:13:08;7.80;99.90
17284;DHT22;8760;52.248;20.952;2024-02-23T04:15:36;7.70;99.90
17284;DHT22;8760;52.248;20.952;2024-02-23T04:18:03;7.70;99.90
17284;DHT22;8760;52.248;20.952;2024-02-23T04:20:30;7.70;99.90
17284;DHT22;8760;52.248;20.952;2024-02-23T04:22:58;7.70;99.90
17284;DHT22;8760;52.248;20.952;2024-02-23T04:25:25;7.60;99.90
17284;DHT22;8760;52.248;20.952;2024-02-23T04:27:53;7.60;99.90
17284;DHT22;8760;52.248;20.952;2024-02-23T04:30:20;7.60;99.90
17284;DHT22;8760;52.248;20.952;2024-02-23T04:32:47;7.50;99.90
17284;DHT22;8760;52.248;20.952;2024-02-23T04:35:14;7.50;99.90
17284;DHT22;8760;52.248;20.952;2024-02-23T04:37:43;7.50;99.90
17284;DHT22;8760;52.248;20.952;2024-02-23T04:40:11;7.50;99.90
17284;DHT22;8760;52.248;20.952;2024-02-23T04:42:38;7.50;99.90
17284;DHT22;8760;52.248;20.952;2024-02-23T04:45:07;7.50;99.90
17284;DHT22;8760;52.248;20.952;2024-02-23T04:47:35;7.50;99.90
17284;DHT22;8760;52.248;20.952;2024-02-23T04:50:01;7.50;99.90
17284;DHT22;8760;52.248;20.952;2024-02-23T04:52:29;7.60;99.90
17284;DHT22;8760;52.248;20.952;2024-02-23T04:54:56;7.60;99.90
17284;DHT22;8760;52.248;20.952;2024-02-23T04:57:22;7.50;99.90
17284;DHT22;8760;52.248;20.952;2024-02-23T04:59:49;7.50;99.90
17284;DHT22;8760;52.248;20.952;2024-02-23T05:02:18;7.60;99.90
17284;DHT22;8760;52.248;20.952;2024-02-23T05:04:44;7.60;99.90
17284;DHT22;8760;52.248;20.952;2024-02-23T05:07:12;7.60;99.90
17284;DHT22;8760;52.248;20.952;2024-02-23T05:09:38;7.60;99.90
17284;DHT22;8760;52.248;20.952;2024-02-23T05:12:07;7.60;99.90
17284;DHT22;8760;52.248;20.952;2024-02-23T05:14:34;7.70;99.90
17284;DHT22;8760;52.248;20.952;2024-02-23T05:17:01;7.70;99.90
17284;DHT22;8760;52.248;20.952;2024-02-23T05:19:30;7.70;99.90
17284;DHT22;8760;52.248;20.952;2024-02-23T05:21:57;7.60;99.90
17284;DHT22;8760;52.248;20.952;2024-02-23T05:24:24;7.60;99.90
17284;DHT22;8760;52.248;20.952;2024-02-23T05:26:51;7.60;99.90
17284;DHT22;8760;52.248;20.952;2024-02-23T05:29:18;7.50;99.90
17284;DHT22;8760;52.248;20.952;2024-02-23T05:31:48;7.50;99.90
17284;DHT22;8760;52.248;20.952;2024-02-23T05:34:16;7.50;99.90
17284;DHT22;8760;52.248;20.952;2024-02-23T05:36:44;7.40;99.90
17284;DHT22;8760;52.248;20.952;2024-02-23T05:39:11;7.50;99.90
17284;DHT22;8760;52.248;20.952;2024-02-23T05:41:38;7.50;99.90
17284;DHT22;8760;52.248;20.952;2024-02-23T05:44:05;7.40;99.90
17284;DHT22;8760;52.248;20.952;2024-02-23T05:46:33;7.40;99.90
17284;DHT22;8760;52.248;20.952;2024-02-23T05:49:00;7.40;99.90
17284;DHT22;8760;52.248;20.952;2024-02-23T05:51:28;7.40;99.90
17284;DHT22;8760;52.248;20.952;2024-02-23T05:53:57;7.40;99.90
17284;DHT22;8760;52.248;20.952;2024-02-23T05:56:24;7.40;99.90
17284;DHT22;8760;52.248;20.952;2024-02-23T05:58:51;7.40;99.90
17284;DHT22;8760;52.248;20.952;2024-02-23T06:01:18;7.40;99.90
17284;DHT22;8760;52.248;20.952;2024-02-23T06:03:45;7.40;99.90
17284;DHT22;8760;52.248;20.952;2024-02-23T06:06:12;7.40;99.90
17284;DHT22;8760;52.248;20.952;2024-02-23T06:08:39;7.40;99.90
17284;DHT22;8760;52.248;20.952;2024-02-23T06:11:09;7.50;99.90
17284;DHT22;8760;52.248;20.952;2024-02-23T06:13:36;7.50;99.90
17284;DHT22;8760;52.248;20.952;2024-02-23T06:16:03;7.50;99.90
17284;DHT22;8760;52.248;20.952;2024-02-23T06:18:30;7.50;99.90
17284;DHT22;8760;52.248;20.952;2024-02-23T06:20:57;7.50;99.90
17284;DHT22;8760;52.248;20.952;2024-02-23T06:23:24;7.50;99.90
17284;DHT22;8760;52.248;20.952;2024-02-23T06:25:51;7.50;99.90
17284;DHT22;8760;52.248;20.952;2024-02-23T06:28:19;7.50;99.90
17284;DHT22;8760;52.248;20.952;2024-02-23T06:30:46;7.50;99.90
17284;DHT22;8760;52.248;20.952;2024-02-23T06:33:13;7.60;99.90
17284;DHT22;8760;52.248;20.952;2024-02-23T06:35:40;7.60;99.90
17284;DHT22;8760;52.248;20.952;2024-02-23T06:38:07;7.60;99.90
17284;DHT22;8760;52.248;20.952;2024-02-23T06:40:35;7.60;99.90
17284;DHT22;8760;52.248;20.952;2024-02-23T06:43:02;7.60;99.90
17284;DHT22;8760;52.248;20.952;2024-02-23T06:45:30;7.60;99.90
17284;DHT22;8760;52.248;20.952;2024-02-23T06:47:57;7.60;99.90
17284;DHT22;8760;52.248;20.952;2024-02-23T06:50:24;7.70;99.90
17284;DHT22;8760;52.248;20.952;2024-02-23T06:52:51;7.70;99.90
17284;DHT22;8760;52.248;20.952;2024-02-23T06:55:18;7.70;99.90
17284;DHT22;8760;52.248;20.952;2024-02-23T06:57:45;7.80;99.90
17284;DHT22;8760;52.248;20.952;2024-02-23T07:00:13;7.80;99.90
17284;DHT22;8760;52.248;20.952;2024-02-23T07:02:41;7.80;99.90
17284;DHT22;8760;52.248;20.952;2024-02-23T07:05:08;7.90;99.90
17284;DHT22;8760;52.248;20.952;2024-02-23T07:07:35;7.90;99.90
17284;DHT22;8760;52.248;20.952;2024-02-23T07:10:02;7.90;99.90
17284;DHT22;8760;52.248;20.952;2024-02-23T07:12:29;7.90;99.90
17284;DHT22;8760;52.248;20.952;2024-02-23T07:14:56;8.00;99.90
17284;DHT22;8760;52.248;20.952;2024-02-23T07:17:23;7.90;99.90
17284;DHT22;8760;52.248;20.952;2024-02-23T07:19:51;7.90;99.90
17284;DHT22;8760;52.248;20.952;2024-02-23T07:22:18;7.90;99.90
17284;DHT22;8760;52.248;20.952;2024-02-23T07:24:46;8.00;99.90
17284;DHT22;8760;52.248;20.952;2024-02-23T07:27:13;8.00;99.90
17284;DHT22;8760;52.248;20.952;2024-02-23T07:29:40;8.00;99.90
17284;DHT22;8760;52.248;20.952;2024-02-23T07:32:07;8.00;99.90
17284;DHT22;8760;52.248;20.952;2024-02-23T07:34:33;8.10;99.90
17284;DHT22;8760;52.248;20.952;2024-02-23T07:37:02;8.10;99.90
17284;DHT22;8760;52.248;20.952;2024-02-23T07:39:29;8.10;99.90
17284;DHT22;8760;52.248;20.952;2024-02-23T07:41:56;8.10;99.90
17284;DHT22;8760;52.248;20.952;2024-02-23T07:44:23;8.20;99.90
17284;DHT22;8760;52.248;20.952;2024-02-23T07:46:50;8.20;99.90
17284;DHT22;8760;52.248;20.952;2024-02-23T07:49:18;8.20;99.90
17284;DHT22;8760;52.248;20.952;2024-02-23T07:51:45;8.20;99.90
17284;DHT22;8760;52.248;20.952;2024-02-23T07:54:13;8.20;99.90
17284;DHT22;8760;52.248;20.952;2024-02-23T07:56:40;8.20;99.90
17284;DHT22;8760;52.248;20.952;2024-02-23T07:59:07;8.20;99.90
17284;DHT22;8760;52.248;20.952;2024-02-23T08:01:33;8.30;99.90
17284;DHT22;8760;52.248;20.952;2024-02-23T08:04:00;8.20;99.90
17284;DHT22;8760;52.248;20.952;2024-02-23T08:06:28;8.20;99.90
17284;DHT22;8760;52.248;20.952;2024-02-23T08:08:55;8.30;99.90
17284;DHT22;8760;52.248;20.952;2024-02-23T08:11:23;8.30;99.90
17284;DHT22;8760;52.248;20.952;2024-02-23T08:13:50;8.30;99.90
17284;DHT22;8760;52.248;20.952;2024-02-23T08:16:17;8.30;99.90
17284;DHT22;8760;52.248;20.952;2024-02-23T08:18:44;8.30;99.90
17284;DHT22;8760;52.248;20.952;2024-02-23T08:21:11;8.30;99.90
17284;DHT22;8760;52.248;20.952;2024-02-23T08:23:38;8.30;99.90
17284;DHT22;8760;52.248;20.952;2024-02-23T08:26:06;8.30;99.90
17284;DHT22;8760;52.248;20.952;2024-02-23T08:28:34;8.30;99.90
17284;DHT22;8760;52.248;20.952;2024-02-23T08:31:01;8.40;99.90
17284;DHT22;8760;52.248;20.952;2024-02-23T08:33:28;8.40;99.90
17284;DHT22;8760;52.248;20.952;2024-02-23T08:35:55;8.50;99.90
17284;DHT22;8760;52.248;20.952;2024-02-23T08:38:21;8.50;99.90
17284;DHT22;8760;52.248;20.952;2024-02-23T08:40:48;8.60;99.90
17284;DHT22;8760;52.248;20.952;2024-02-23T08:43:15;8.60;99.90
17284;DHT22;8760;52.248;20.952;2024-02-23T08:45:44;8.60;99.90
17284;DHT22;8760;52.248;20.952;2024-02-23T08:48:11;8.60;99.90
17284;DHT22;8760;52.248;20.952;2024-02-23T08:50:40;8.70;99.90
17284;DHT22;8760;52.248;20.952;2024-02-23T08:53:07;8.70;99.90
17284;DHT22;8760;52.248;20.952;2024-02-23T08:55:34;8.70;99.90
17284;DHT22;8760;52.248;20.952;2024-02-23T08:58:01;8.90;99.90
17284;DHT22;8760;52.248;20.952;2024-02-23T09:00:28;8.90;99.90
17284;DHT22;8760;52.248;20.952;2024-02-23T09:02:56;9.00;99.90
17284;DHT22;8760;52.248;20.952;2024-02-23T09:05:23;9.10;99.90
17284;DHT22;8760;52.248;20.952;2024-02-23T09:07:50;9.20;99.90
17284;DHT22;8760;52.248;20.952;2024-02-23T09:10:16;9.20;99.90
17284;DHT22;8760;52.248;20.952;2024-02-23T09:12:43;9.40;99.90
17284;DHT22;8760;52.248;20.952;2024-02-23T09:15:10;9.40;99.90
17284;DHT22;8760;52.248;20.952;2024-02-23T09:17:37;9.50;99.90
17284;DHT22;8760;52.248;20.952;2024-02-23T09:20:06;9.70;99.90
17284;DHT22;8760;52.248;20.952;2024-02-23T09:22:33;9.80;99.90
17284;DHT22;8760;52.248;20.952;2024-02-23T09:25:01;9.90;99.90
17284;DHT22;8760;52.248;20.952;2024-02-23T09:27:30;10.00;99.90
17284;DHT22;8760;52.248;20.952;2024-02-23T09:29:57;10.20;99.90
17284;DHT22;8760;52.248;20.952;2024-02-23T09:32:24;10.30;99.90
17284;DHT22;8760;52.248;20.952;2024-02-23T09:34:51;10.40;99.90
17284;DHT22;8760;52.248;20.952;2024-02-23T09:37:19;10.50;99.90
17284;DHT22;8760;52.248;20.952;2024-02-23T09:39:46;10.50;99.90
17284;DHT22;8760;52.248;20.952;2024-02-23T09:42:13;10.50;99.90
17284;DHT22;8760;52.248;20.952;2024-02-23T09:44:41;10.40;99.90
17284;DHT22;8760;52.248;20.952;2024-02-23T09:47:10;10.40;99.90
17284;DHT22;8760;52.248;20.952;2024-02-23T09:49:38;10.30;99.90
17284;DHT22;8760;52.248;20.952;2024-02-23T09:52:07;10.20;99.90
17284;DHT22;8760;52.248;20.952;2024-02-23T09:54:36;10.00;99.90
17284;DHT22;8760;52.248;20.952;2024-02-23T09:57:07;10.00;99.90
17284;DHT22;8760;52.248;20.952;2024-02-23T09:59:34;10.00;99.90
17284;DHT22;8760;52.248;20.952;2024-02-23T10:02:01;9.90;99.90
17284;DHT22;8760;52.248;20.952;2024-02-23T10:04:30;9.90;99.90
17284;DHT22;8760;52.248;20.952;2024-02-23T10:06:57;9.90;99.90
17284;DHT22;8760;52.248;20.952;2024-02-23T10:09:24;10.00;99.90
17284;DHT22;8760;52.248;20.952;2024-02-23T10:11:53;10.10;99.90
17284;DHT22;8760;52.248;20.952;2024-02-23T10:14:20;10.20;99.90
17284;DHT22;8760;52.248;20.952;2024-02-23T10:16:47;10.30;99.90
17284;DHT22;8760;52.248;20.952;2024-02-23T10:19:18;10.40;99.90
17284;DHT22;8760;52.248;20.952;2024-02-23T10:21:45;10.40;99.90
17284;DHT22;8760;52.248;20.952;2024-02-23T10:24:12;10.40;99.90
17284;DHT22;8760;52.248;20.952;2024-02-23T10:26:39;10.40;99.90
17284;DHT22;8760;52.248;20.952;2024-02-23T10:29:08;10.40;99.90
17284;DHT22;8760;52.248;20.952;2024-02-23T10:31:36;10.50;99.90
17284;DHT22;8760;52.248;20.952;2024-02-23T10:34:07;10.50;99.90
17284;DHT22;8760;52.248;20.952;2024-02-23T10:36:38;10.60;99.90
17284;DHT22;8760;52.248;20.952;2024-02-23T10:39:07;10.50;99.90
17284;DHT22;8760;52.248;20.952;2024-02-23T10:41:36;10.40;99.90
17284;DHT22;8760;52.248;20.952;2024-02-23T10:44:03;10.30;99.90
17284;DHT22;8760;52.248;20.952;2024-02-23T10:46:33;10.40;99.90
17284;DHT22;8760;52.248;20.952;2024-02-23T10:49:01;10.40;99.90
17284;DHT22;8760;52.248;20.952;2024-02-23T10:51:31;10.50;99.90
17284;DHT22;8760;52.248;20.952;2024-02-23T10:54:02;10.40;99.90
17284;DHT22;8760;52.248;20.952;2024-02-23T10:56:29;10.30;99.90
17284;DHT22;8760;52.248;20.952;2024-02-23T10:58:56;10.30;99.90
17284;DHT22;8760;52.248;20.952;2024-02-23T11:01:24;10.30;99.90
17284;DHT22;8760;52.248;20.952;2024-02-23T11:03:53;10.30;99.90
17284;DHT22;8760;52.248;20.952;2024-02-23T11:06:27;10.20;99.90
17284;DHT22;8760;52.248;20.952;2024-02-23T11:09:04;10.30;99.90
17284;DHT22;8760;52.248;20.952;2024-02-23T11:11:32;10.20;99.90
17284;DHT22;8760;52.248;20.952;2024-02-23T11:14:03;10.20;99.90
17284;DHT22;8760;52.248;20.952;2024-02-23T11:16:32;10.20;99.90
17284;DHT22;8760;52.248;20.952;2024-02-23T11:19:06;10.20;99.90
17284;DHT22;8760;52.248;20.952;2024-02-23T11:21:34;10.20;99.90
17284;DHT22;8760;52.248;20.952;2024-02-23T11:24:03;10.20;99.90
17284;DHT22;8760;52.248;20.952;2024-02-23T11:26:30;10.20;99.90
17284;DHT22;8760;52.248;20.952;2024-02-23T11:28:59;10.20;99.90
17284;DHT22;8760;52.248;20.952;2024-02-23T11:31:29;10.20;99.90
17284;DHT22;8760;52.248;20.952;2024-02-23T11:33:57;10.20;99.90
17284;DHT22;8760;52.248;20.952;2024-02-23T11:36:29;10.20;99.90
17284;DHT22;8760;52.248;20.952;2024-02-23T11:38:57;10.20;99.90
17284;DHT22;8760;52.248;20.952;2024-02-23T11:41:25;10.30;99.90
17284;DHT22;8760;52.248;20.952;2024-02-23T11:43:55;10.30;99.90
17284;DHT22;8760;52.248;20.952;2024-02-23T11:46:23;10.30;99.90
17284;DHT22;8760;52.248;20.952;2024-02-23T11:48:50;10.50;99.90
17284;DHT22;8760;52.248;20.952;2024-02-23T11:51:20;10.60;99.90
17284;DHT22;8760;52.248;20.952;2024-02-23T11:53:49;10.50;99.90
17284;DHT22;8760;52.248;20.952;2024-02-23T11:56:16;10.50;99.90
17284;DHT22;8760;52.248;20.952;2024-02-23T11:58:44;10.60;99.90
17284;DHT22;8760;52.248;20.952;2024-02-23T12:01:10;10.50;99.90
17284;DHT22;8760;52.248;20.952;2024-02-23T12:03:37;10.40;99.90
17284;DHT22;8760;52.248;20.952;2024-02-23T12:06:05;10.40;99.90
17284;DHT22;8760;52.248;20.952;2024-02-23T12:08:33;10.50;99.90
17284;DHT22;8760;52.248;20.952;2024-02-23T12:11:05;10.50;99.90
17284;DHT22;8760;52.248;20.952;2024-02-23T12:13:34;10.50;99.90
17284;DHT22;8760;52.248;20.952;2024-02-23T12:16:02;10.50;99.90
17284;DHT22;8760;52.248;20.952;2024-02-23T12:18:29;10.50;99.90
17284;DHT22;8760;52.248;20.952;2024-02-23T12:20:59;10.60;99.90
17284;DHT22;8760;52.248;20.952;2024-02-23T12:23:27;10.60;99.90
17284;DHT22;8760;52.248;20.952;2024-02-23T12:25:54;10.70;99.90
17284;DHT22;8760;52.248;20.952;2024-02-23T12:28:24;10.80;99.90
17284;DHT22;8760;52.248;20.952;2024-02-23T12:31:00;10.90;99.90
17284;DHT22;8760;52.248;20.952;2024-02-23T12:33:27;10.90;99.90
17284;DHT22;8760;52.248;20.952;2024-02-23T12:35:56;10.90;99.90
17284;DHT22;8760;52.248;20.952;2024-02-23T12:38:23;11.00;99.90
17284;DHT22;8760;52.248;20.952;2024-02-23T12:40:50;10.90;99.90
17284;DHT22;8760;52.248;20.952;2024-02-23T12:43:17;10.80;99.90
17284;DHT22;8760;52.248;20.952;2024-02-23T12:45:45;10.90;99.90
17284;DHT22;8760;52.248;20.952;2024-02-23T12:48:14;10.70;99.90
17284;DHT22;8760;52.248;20.952;2024-02-23T12:50:41;10.70;99.90
17284;DHT22;8760;52.248;20.952;2024-02-23T12:53:09;10.70;99.90
17284;DHT22;8760;52.248;20.952;2024-02-23T12:55:36;10.70;99.90
17284;DHT22;8760;52.248;20.952;2024-02-23T12:58:03;10.80;99.90
17284;DHT22;8760;52.248;20.952;2024-02-23T13:00:30;10.70;99.90
17284;DHT22;8760;52.248;20.952;2024-02-23T13:02:58;10.60;99.90
17284;DHT22;8760;52.248;20.952;2024-02-23T13:05:25;10.60;99.90
17284;DHT22;8760;52.248;20.952;2024-02-23T13:07:52;10.70;99.90
17284;DHT22;8760;52.248;20.952;2024-02-23T13:10:19;10.70;99.90
17284;DHT22;8760;52.248;20.952;2024-02-23T13:12:45;10.80;99.90
17284;DHT22;8760;52.248;20.952;2024-02-23T13:15:12;10.80;99.90
17284;DHT22;8760;52.248;20.952;2024-02-23T13:17:40;10.70;99.90
17284;DHT22;8760;52.248;20.952;2024-02-23T13:20:10;10.80;99.90
17284;DHT22;8760;52.248;20.952;2024-02-23T13:22:39;10.80;99.90
17284;DHT22;8760;52.248;20.952;2024-02-23T13:25:06;10.80;99.90
17284;DHT22;8760;52.248;20.952;2024-02-23T13:27:33;10.80;99.90
17284;DHT22;8760;52.248;20.952;2024-02-23T13:30:00;10.80;99.90
17284;DHT22;8760;52.248;20.952;2024-02-23T13:32:27;10.60;99.90
17284;DHT22;8760;52.248;20.952;2024-02-23T13:34:54;10.60;99.90
17284;DHT22;8760;52.248;20.952;2024-02-23T13:37:22;10.50;99.90
17284;DHT22;8760;52.248;20.952;2024-02-23T13:39:49;10.60;99.90
17284;DHT22;8760;52.248;20.952;2024-02-23T13:42:16;10.60;99.90
17284;DHT22;8760;52.248;20.952;2024-02-23T13:44:43;10.50;99.90
17284;DHT22;8760;52.248;20.952;2024-02-23T13:47:11;10.50;99.90
17284;DHT22;8760;52.248;20.952;2024-02-23T13:49:38;10.50;99.90
17284;DHT22;8760;52.248;20.952;2024-02-23T13:52:05;10.40;99.90
17284;DHT22;8760;52.248;20.952;2024-02-23T13:54:34;10.40;99.90
17284;DHT22;8760;52.248;20.952;2024-02-23T13:57:01;10.50;99.90
17284;DHT22;8760;52.248;20.952;2024-02-23T13:59:28;10.50;99.90
17284;DHT22;8760;52.248;20.952;2024-02-23T14:01:55;10.60;99.90
17284;DHT22;8760;52.248;20.952;2024-02-23T14:04:22;10.60;99.90
17284;DHT22;8760;52.248;20.952;2024-02-23T14:06:48;10.80;99.90
17284;DHT22;8760;52.248;20.952;2024-02-23T14:09:15;10.90;99.90
17284;DHT22;8760;52.248;20.952;2024-02-23T14:11:44;10.80;99.90
17284;DHT22;8760;52.248;20.952;2024-02-23T14:14:13;10.70;99.90
17284;DHT22;8760;52.248;20.952;2024-02-23T14:16:43;10.70;99.90
17284;DHT22;8760;52.248;20.952;2024-02-23T14:19:10;10.70;99.90
17284;DHT22;8760;52.248;20.952;2024-02-23T14:21:37;10.60;99.90
17284;DHT22;8760;52.248;20.952;2024-02-23T14:24:04;10.60;99.90
17284;DHT22;8760;52.248;20.952;2024-02-23T14:26:31;10.70;99.90
17284;DHT22;8760;52.248;20.952;2024-02-23T14:29:00;10.70;99.90
17284;DHT22;8760;52.248;20.952;2024-02-23T14:31:27;10.60;99.90
17284;DHT22;8760;52.248;20.952;2024-02-23T14:33:54;10.60;99.90
17284;DHT22;8760;52.248;20.952;2024-02-23T14:36:21;10.60;99.90
17284;DHT22;8760;52.248;20.952;2024-02-23T14:38:49;10.50;99.90
17284;DHT22;8760;52.248;20.952;2024-02-23T14:41:16;10.50;99.90
17284;DHT22;8760;52.248;20.952;2024-02-23T14:43:43;10.50;99.90
17284;DHT22;8760;52.248;20.952;2024-02-23T14:46:11;10.60;99.90
17284;DHT22;8760;52.248;20.952;2024-02-23T14:48:38;10.60;99.90
17284;DHT22;8760;52.248;20.952;2024-02-23T14:51:05;10.70;99.90
17284;DHT22;8760;52.248;20.952;2024-02-23T14:53:34;10.80;99.90
17284;DHT22;8760;52.248;20.952;2024-02-23T14:56:01;10.70;99.90
17284;DHT22;8760;52.248;20.952;2024-02-23T14:58:28;10.80;99.90
17284;DHT22;8760;52.248;20.952;2024-02-23T15:00:55;10.80;99.90
17284;DHT22;8760;52.248;20.952;2024-02-23T15:03:24;10.80;99.90
17284;DHT22;8760;52.248;20.952;2024-02-23T15:05:51;10.90;99.90
17284;DHT22;8760;52.248;20.952;2024-02-23T15:08:18;11.10;99.90
17284;DHT22;8760;52.248;20.952;2024-02-23T15:10:45;11.00;99.90
17284;DHT22;8760;52.248;20.952;2024-02-23T15:13:12;11.00;99.90
17284;DHT22;8760;52.248;20.952;2024-02-23T15:15:39;10.90;99.90
17284;DHT22;8760;52.248;20.952;2024-02-23T15:18:07;11.00;99.90
17284;DHT22;8760;52.248;20.952;2024-02-23T15:20:36;11.10;99.90
17284;DHT22;8760;52.248;20.952;2024-02-23T15:23:03;11.00;99.90
17284;DHT22;8760;52.248;20.952;2024-02-23T15:25:30;11.00;99.90
17284;DHT22;8760;52.248;20.952;2024-02-23T15:27:58;10.90;99.90
17284;DHT22;8760;52.248;20.952;2024-02-23T15:30:25;10.90;99.90
17284;DHT22;8760;52.248;20.952;2024-02-23T15:32:53;10.90;99.90
17284;DHT22;8760;52.248;20.952;2024-02-23T15:35:20;11.00;99.90
17284;DHT22;8760;52.248;20.952;2024-02-23T15:37:48;11.00;99.90
17284;DHT22;8760;52.248;20.952;2024-02-23T15:40:15;11.00;99.90